createdAt,value
2019-06-25T00:01:03.634Z,0.00
2019-06-25T00:03:00.314Z,0.00
2019-06-25T00:04:00.236Z,0.00
2019-06-25T00:06:04.554Z,0.00
2019-06-25T00:07:04.450Z,0.00
2019-06-25T00:09:08.782Z,0.00
2019-06-25T00:10:08.689Z,0.00
2019-06-25T00:12:01.952Z,0.00
2019-06-25T00:13:01.863Z,0.00
2019-06-25T00:15:06.167Z,0.00
2019-06-25T00:16:06.094Z,0.00
2019-06-25T00:18:10.406Z,0.00
2019-06-25T00:19:10.438Z,0.00
2019-06-25T00:21:14.629Z,0.00
2019-06-25T00:22:14.545Z,0.00
2019-06-25T00:24:18.875Z,0.00
2019-06-25T00:25:18.788Z,0.00
2019-06-25T00:27:23.146Z,0.00
2019-06-25T00:28:23.014Z,0.00
2019-06-25T00:30:27.324Z,0.00
2019-06-25T00:31:27.240Z,0.00
2019-06-25T00:33:31.596Z,0.00
2019-06-25T00:34:31.504Z,0.00
2019-06-25T00:36:35.808Z,0.00
2019-06-25T00:37:35.727Z,0.00
2019-06-25T00:38:35.653Z,0.00
2019-06-25T00:39:35.583Z,0.00
2019-06-25T00:40:35.508Z,0.00
2019-06-25T00:41:35.436Z,0.00
2019-06-25T00:42:35.356Z,0.00
2019-06-25T00:43:35.289Z,0.00
2019-06-25T00:44:35.211Z,0.00
2019-06-25T00:45:35.141Z,0.00
2019-06-25T00:46:35.067Z,0.00
2019-06-25T00:47:34.995Z,0.00
2019-06-25T00:48:34.922Z,0.00
2019-06-25T00:49:34.893Z,0.00
2019-06-25T00:50:34.776Z,0.00
2019-06-25T00:51:34.706Z,0.00
2019-06-25T00:52:34.626Z,0.00
2019-06-25T00:53:34.549Z,0.00
2019-06-25T00:54:34.480Z,0.00
2019-06-25T00:55:34.407Z,0.00
2019-06-25T00:56:34.333Z,0.00
2019-06-25T00:57:34.263Z,0.00
2019-06-25T00:58:34.185Z,0.00
2019-06-25T00:59:34.109Z,0.00
2019-06-25T01:00:34.038Z,0.00
2019-06-25T01:01:33.967Z,0.00
2019-06-25T01:02:33.894Z,0.00
2019-06-25T01:03:33.816Z,0.00
2019-06-25T01:04:33.745Z,0.00
2019-06-25T01:05:33.672Z,0.00
2019-06-25T01:06:33.601Z,0.00
2019-06-25T01:07:33.537Z,0.00
2019-06-25T01:08:33.450Z,0.00
2019-06-25T01:09:33.375Z,0.00
2019-06-25T01:10:33.302Z,0.00
2019-06-25T01:11:33.232Z,0.00
2019-06-25T01:12:33.159Z,0.00
2019-06-25T01:13:33.081Z,0.00
2019-06-25T01:14:33.012Z,0.00
2019-06-25T01:15:32.931Z,0.00
2019-06-25T01:16:32.862Z,0.00
2019-06-25T01:17:32.788Z,0.00
2019-06-25T01:18:32.708Z,0.00
2019-06-25T01:19:32.639Z,0.00
2019-06-25T01:20:32.564Z,0.00
2019-06-25T01:21:32.493Z,0.00
2019-06-25T01:22:32.414Z,0.00
2019-06-25T01:23:32.339Z,0.00
2019-06-25T01:24:32.267Z,0.00
2019-06-25T01:25:32.196Z,0.00
2019-06-25T01:26:32.121Z,0.00
2019-06-25T01:27:32.048Z,0.00
2019-06-25T01:28:31.973Z,0.00
2019-06-25T01:29:31.900Z,0.00
2019-06-25T01:30:31.825Z,0.00
2019-06-25T01:31:31.753Z,0.00
2019-06-25T01:32:31.689Z,0.00
2019-06-25T01:33:31.631Z,0.00
2019-06-25T01:34:31.546Z,0.00
2019-06-25T01:35:31.457Z,0.00
2019-06-25T01:36:31.387Z,0.00
2019-06-25T01:37:31.333Z,0.00
2019-06-25T01:38:31.253Z,0.00
2019-06-25T01:39:31.190Z,0.00
2019-06-25T01:40:31.096Z,0.00
2019-06-25T01:41:31.015Z,0.00
2019-06-25T01:42:30.941Z,0.00
2019-06-25T01:43:30.867Z,0.00
2019-06-25T01:44:30.809Z,0.00
2019-06-25T01:45:30.727Z,0.00
2019-06-25T01:46:30.659Z,0.00
2019-06-25T01:47:30.566Z,0.00
2019-06-25T01:48:30.502Z,0.00
2019-06-25T01:49:30.610Z,0.00
2019-06-25T01:50:30.352Z,0.00
2019-06-25T01:51:30.284Z,0.00
2019-06-25T01:52:30.210Z,0.00
2019-06-25T01:53:30.132Z,0.00
2019-06-25T01:54:30.057Z,0.00
2019-06-25T01:55:30.024Z,0.00
2019-06-25T01:56:29.907Z,0.00
2019-06-25T01:57:29.838Z,0.00
2019-06-25T01:58:29.812Z,0.00
2019-06-25T01:59:29.688Z,0.00
2019-06-25T02:00:43.812Z,0.00
2019-06-25T02:01:29.541Z,0.00
2019-06-25T02:02:29.466Z,0.00
2019-06-25T02:03:29.414Z,0.00
2019-06-25T02:04:29.320Z,0.00
2019-06-25T02:05:29.248Z,0.00
2019-06-25T02:06:29.176Z,0.00
2019-06-25T02:07:29.107Z,0.00
2019-06-25T02:08:29.074Z,0.00
2019-06-25T02:09:28.953Z,0.00
2019-06-25T02:10:28.878Z,0.00
2019-06-25T02:11:28.807Z,0.00
2019-06-25T02:12:28.731Z,0.00
2019-06-25T02:13:28.654Z,0.00
2019-06-25T02:14:28.583Z,0.00
2019-06-25T02:15:28.533Z,0.00
2019-06-25T02:16:28.439Z,0.00
2019-06-25T02:17:28.374Z,0.00
2019-06-25T02:18:29.379Z,0.00
2019-06-25T02:19:28.213Z,0.00
2019-06-25T02:20:28.143Z,0.00
2019-06-25T02:21:28.069Z,0.00
2019-06-25T02:22:28.003Z,0.00
2019-06-25T02:23:27.927Z,0.00
2019-06-25T02:24:27.845Z,0.00
2019-06-25T02:25:27.782Z,0.00
2019-06-25T02:26:27.701Z,0.00
2019-06-25T02:27:27.621Z,0.00
2019-06-25T02:28:27.551Z,0.00
2019-06-25T02:29:27.496Z,0.00
2019-06-25T02:30:27.405Z,0.00
2019-06-25T02:31:27.334Z,0.00
2019-06-25T02:32:27.259Z,0.00
2019-06-25T02:33:27.190Z,0.00
2019-06-25T02:34:27.118Z,0.00
2019-06-25T02:35:27.035Z,0.00
2019-06-25T02:36:26.988Z,0.00
2019-06-25T02:37:26.889Z,0.00
2019-06-25T02:38:26.819Z,0.00
2019-06-25T02:39:26.740Z,0.00
2019-06-25T02:40:26.685Z,0.00
2019-06-25T02:41:26.613Z,0.00
2019-06-25T02:42:26.520Z,0.00
2019-06-25T02:43:26.442Z,0.00
2019-06-25T02:44:26.374Z,0.00
2019-06-25T02:45:26.305Z,0.00
2019-06-25T02:46:26.224Z,0.00
2019-06-25T02:47:26.163Z,0.00
2019-06-25T02:48:26.088Z,0.00
2019-06-25T02:49:26.003Z,0.00
2019-06-25T02:50:25.928Z,0.00
2019-06-25T02:51:25.855Z,0.00
2019-06-25T02:52:25.778Z,0.00
2019-06-25T02:53:25.707Z,0.00
2019-06-25T02:54:25.636Z,0.00
2019-06-25T02:55:25.557Z,0.00
2019-06-25T02:56:25.489Z,0.00
2019-06-25T02:57:25.410Z,0.00
2019-06-25T02:58:25.334Z,0.00
2019-06-25T02:59:25.293Z,0.00
2019-06-25T03:00:25.185Z,0.00
2019-06-25T03:01:29.112Z,0.00
2019-06-25T03:02:25.038Z,0.00
2019-06-25T03:03:25.122Z,0.00
2019-06-25T03:04:24.892Z,0.00
2019-06-25T03:05:24.819Z,0.00
2019-06-25T03:06:24.743Z,5.63
2019-06-25T03:07:24.669Z,5.63
2019-06-25T03:08:24.596Z,5.63
2019-06-25T03:09:24.523Z,5.63
2019-06-25T03:10:24.449Z,5.63
2019-06-25T03:11:24.366Z,5.63
2019-06-25T03:12:24.298Z,5.63
2019-06-25T03:13:24.230Z,5.63
2019-06-25T03:14:24.157Z,5.63
2019-06-25T03:15:24.075Z,5.63
2019-06-25T03:16:24.005Z,11.25
2019-06-25T03:17:23.938Z,11.25
2019-06-25T03:18:23.857Z,11.25
2019-06-25T03:19:23.787Z,11.25
2019-06-25T03:20:23.716Z,11.25
2019-06-25T03:21:23.635Z,11.25
2019-06-25T03:22:23.558Z,11.25
2019-06-25T03:23:23.487Z,11.25
2019-06-25T03:24:23.410Z,16.88
2019-06-25T03:25:23.341Z,16.88
2019-06-25T03:26:23.272Z,16.88
2019-06-25T03:27:23.187Z,16.88
2019-06-25T03:28:23.117Z,16.88
2019-06-25T03:29:23.043Z,16.88
2019-06-25T03:30:23.011Z,16.88
2019-06-25T03:31:22.896Z,22.50
2019-06-25T03:32:22.817Z,22.50
2019-06-25T03:33:22.745Z,22.50
2019-06-25T03:34:22.673Z,22.50
2019-06-25T03:35:22.687Z,22.50
2019-06-25T03:36:22.521Z,22.50
2019-06-25T03:37:22.456Z,28.13
2019-06-25T03:38:22.376Z,28.13
2019-06-25T03:39:22.298Z,28.13
2019-06-25T03:40:22.223Z,28.13
2019-06-25T03:41:22.155Z,28.13
2019-06-25T03:42:22.160Z,33.75
2019-06-25T03:43:22.042Z,33.75
2019-06-25T03:44:21.928Z,33.75
2019-06-25T03:45:21.854Z,33.75
2019-06-25T03:46:21.777Z,33.75
2019-06-25T03:47:21.704Z,39.38
2019-06-25T03:48:21.633Z,39.38
2019-06-25T03:49:21.556Z,39.38
2019-06-25T03:50:21.480Z,39.38
2019-06-25T03:51:21.417Z,39.38
2019-06-25T03:52:21.332Z,39.38
2019-06-25T03:53:21.262Z,45.00
2019-06-25T03:54:21.186Z,45.00
2019-06-25T03:55:21.109Z,45.00
2019-06-25T03:56:21.035Z,45.00
2019-06-25T03:57:20.959Z,45.00
2019-06-25T03:58:20.890Z,50.63
2019-06-25T03:59:20.813Z,50.63
2019-06-25T04:00:20.743Z,50.63
2019-06-25T04:01:20.665Z,50.63
2019-06-25T04:02:20.587Z,50.63
2019-06-25T04:03:20.512Z,50.63
2019-06-25T04:04:20.451Z,56.25
2019-06-25T04:05:20.384Z,56.25
2019-06-25T04:06:20.305Z,56.25
2019-06-25T04:07:20.220Z,56.25
2019-06-25T04:08:20.143Z,61.88
2019-06-25T04:09:20.071Z,61.88
2019-06-25T04:10:19.995Z,61.88
2019-06-25T04:11:19.924Z,61.88
2019-06-25T04:12:19.846Z,67.50
2019-06-25T04:13:19.777Z,67.50
2019-06-25T04:14:19.699Z,67.50
2019-06-25T04:15:19.629Z,67.50
2019-06-25T04:16:19.558Z,67.50
2019-06-25T04:17:19.507Z,67.50
2019-06-25T04:18:19.405Z,73.13
2019-06-25T04:19:19.445Z,73.13
2019-06-25T04:20:19.255Z,73.13
2019-06-25T04:21:19.192Z,73.13
2019-06-25T04:22:19.107Z,78.75
2019-06-25T04:23:19.061Z,78.75
2019-06-25T04:24:18.959Z,78.75
2019-06-25T04:25:18.885Z,78.75
2019-06-25T04:26:18.810Z,78.75
2019-06-25T04:27:18.740Z,78.75
2019-06-25T04:28:18.666Z,78.75
2019-06-25T04:29:18.597Z,78.75
2019-06-25T04:30:18.538Z,78.75
2019-06-25T04:31:18.444Z,84.38
2019-06-25T04:32:32.214Z,84.38
2019-06-25T04:33:18.295Z,84.38
2019-06-25T04:34:18.222Z,84.38
2019-06-25T04:35:18.168Z,84.38
2019-06-25T04:36:18.076Z,84.38
2019-06-25T04:37:18.000Z,84.38
2019-06-25T04:38:17.926Z,84.38
2019-06-25T04:39:17.862Z,84.38
2019-06-25T04:40:17.771Z,84.38
2019-06-25T04:41:17.718Z,84.38
2019-06-25T04:42:17.630Z,84.38
2019-06-25T04:43:17.553Z,84.38
2019-06-25T04:44:17.484Z,90.00
2019-06-25T04:45:17.420Z,90.00
2019-06-25T04:46:17.335Z,90.00
2019-06-25T04:47:17.262Z,90.00
2019-06-25T04:48:17.186Z,90.00
2019-06-25T04:49:17.107Z,90.00
2019-06-25T04:50:17.037Z,90.00
2019-06-25T04:51:16.965Z,90.00
2019-06-25T04:52:16.892Z,90.00
2019-06-25T04:53:16.819Z,90.00
2019-06-25T04:54:16.739Z,90.00
2019-06-25T04:55:16.675Z,90.00
2019-06-25T04:56:16.598Z,90.00
2019-06-25T04:57:16.596Z,90.00
2019-06-25T04:58:16.449Z,90.00
2019-06-25T04:59:16.372Z,90.00
2019-06-25T05:00:16.305Z,90.00
2019-06-25T05:01:16.292Z,90.00
2019-06-25T05:02:16.155Z,90.00
2019-06-25T05:03:16.080Z,90.00
2019-06-25T05:04:16.012Z,90.00
2019-06-25T05:05:15.930Z,90.00
2019-06-25T05:06:15.862Z,90.00
2019-06-25T05:07:15.787Z,90.00
2019-06-25T05:08:15.714Z,90.00
2019-06-25T05:09:15.638Z,90.00
2019-06-25T05:10:15.569Z,90.00
2019-06-25T05:11:15.494Z,90.00
2019-06-25T05:12:15.421Z,90.00
2019-06-25T05:13:15.366Z,90.00
2019-06-25T05:14:15.270Z,90.00
2019-06-25T05:15:15.199Z,90.00
2019-06-25T05:16:15.126Z,90.00
2019-06-25T05:17:15.049Z,90.00
2019-06-25T05:18:14.977Z,90.00
2019-06-25T05:19:14.898Z,90.00
2019-06-25T05:20:14.831Z,90.00
2019-06-25T05:21:14.758Z,90.00
2019-06-25T05:22:14.684Z,90.00
2019-06-25T05:23:14.610Z,90.00
2019-06-25T05:24:14.538Z,90.00
2019-06-25T05:25:14.466Z,90.00
2019-06-25T05:26:14.566Z,90.00
2019-06-25T05:27:14.322Z,90.00
2019-06-25T05:28:14.241Z,90.00
2019-06-25T05:29:14.177Z,90.00
2019-06-25T05:30:14.137Z,90.00
2019-06-25T05:31:14.025Z,90.00
2019-06-25T05:32:13.947Z,95.63
2019-06-25T05:33:13.876Z,95.63
2019-06-25T05:34:13.814Z,95.63
2019-06-25T05:35:13.729Z,95.63
2019-06-25T05:36:13.659Z,95.63
2019-06-25T05:37:13.584Z,95.63
2019-06-25T05:38:13.522Z,95.63
2019-06-25T05:39:13.437Z,95.63
2019-06-25T05:40:13.360Z,95.63
2019-06-25T05:41:13.290Z,95.63
2019-06-25T05:42:13.251Z,95.63
2019-06-25T05:43:13.149Z,95.63
2019-06-25T05:44:13.070Z,95.63
2019-06-25T05:45:13.005Z,95.63
2019-06-25T05:46:12.923Z,95.63
2019-06-25T05:47:12.851Z,95.63
2019-06-25T05:48:12.778Z,95.63
2019-06-25T05:49:12.707Z,95.63
2019-06-25T05:50:12.635Z,95.63
2019-06-25T05:51:12.705Z,95.63
2019-06-25T05:52:12.488Z,95.63
2019-06-25T05:53:12.424Z,95.63
2019-06-25T05:54:12.344Z,95.63
2019-06-25T05:55:12.263Z,95.63
2019-06-25T05:56:12.190Z,95.63
2019-06-25T05:57:12.120Z,95.63
2019-06-25T05:58:12.044Z,95.63
2019-06-25T05:59:11.970Z,95.63
2019-06-25T06:00:11.902Z,95.63
2019-06-25T06:01:11.843Z,95.63
2019-06-25T06:02:11.758Z,95.63
2019-06-25T06:03:20.304Z,95.63
2019-06-25T06:04:11.629Z,101.25
2019-06-25T06:05:11.539Z,101.25
2019-06-25T06:06:11.465Z,101.25
2019-06-25T06:07:11.389Z,101.25
2019-06-25T06:08:11.314Z,101.25
2019-06-25T06:09:11.260Z,101.25
2019-06-25T06:10:11.174Z,101.25
2019-06-25T06:11:11.098Z,101.25
2019-06-25T06:12:11.027Z,101.25
2019-06-25T06:13:10.954Z,101.25
2019-06-25T06:14:10.876Z,101.25
2019-06-25T06:15:10.814Z,101.25
2019-06-25T06:16:10.732Z,101.25
2019-06-25T06:17:12.645Z,101.25
2019-06-25T06:18:10.587Z,101.25
2019-06-25T06:19:10.513Z,101.25
2019-06-25T06:20:10.442Z,101.25
2019-06-25T06:21:10.369Z,101.25
2019-06-25T06:22:10.298Z,101.25
2019-06-25T06:23:10.224Z,101.25
2019-06-25T06:24:10.156Z,101.25
2019-06-25T06:25:10.079Z,101.25
2019-06-25T06:26:17.523Z,101.25
2019-06-25T06:27:09.939Z,106.88
2019-06-25T06:28:09.861Z,106.88
2019-06-25T06:29:09.796Z,106.88
2019-06-25T06:30:09.714Z,106.88
2019-06-25T06:31:16.896Z,106.88
2019-06-25T06:32:09.574Z,106.88
2019-06-25T06:33:09.504Z,106.88
2019-06-25T06:34:09.429Z,106.88
2019-06-25T06:35:09.359Z,106.88
2019-06-25T06:36:09.276Z,106.88
2019-06-25T06:37:09.211Z,106.88
2019-06-25T06:38:09.149Z,106.88
2019-06-25T06:39:09.066Z,106.88
2019-06-25T06:40:08.989Z,112.50
2019-06-25T06:41:08.912Z,112.50
2019-06-25T06:42:08.842Z,106.88
2019-06-25T06:43:08.773Z,112.50
2019-06-25T06:44:08.697Z,106.88
2019-06-25T06:45:08.620Z,112.50
2019-06-25T06:46:08.551Z,112.50
2019-06-25T06:47:08.484Z,118.13
2019-06-25T06:48:08.408Z,118.13
2019-06-25T06:49:08.336Z,118.13
2019-06-25T06:50:08.271Z,118.13
2019-06-25T06:51:08.195Z,112.50
2019-06-25T06:52:08.117Z,118.13
2019-06-25T06:53:08.052Z,118.13
2019-06-25T06:54:07.997Z,118.13
2019-06-25T06:55:07.897Z,118.13
2019-06-25T06:56:07.829Z,118.13
2019-06-25T06:57:07.751Z,118.13
2019-06-25T06:58:07.686Z,118.13
2019-06-25T06:59:07.605Z,118.13
2019-06-25T07:00:07.541Z,123.75
2019-06-25T07:01:07.460Z,118.13
2019-06-25T07:02:07.402Z,118.13
2019-06-25T07:03:07.318Z,129.38
2019-06-25T07:04:07.308Z,123.75
2019-06-25T07:05:07.176Z,123.75
2019-06-25T07:06:07.097Z,123.75
2019-06-25T07:07:07.030Z,123.75
2019-06-25T07:08:06.951Z,123.75
2019-06-25T07:09:06.914Z,123.75
2019-06-25T07:10:06.816Z,123.75
2019-06-25T07:11:06.753Z,123.75
2019-06-25T07:12:06.671Z,123.75
2019-06-25T07:13:06.601Z,123.75
2019-06-25T07:14:06.536Z,123.75
2019-06-25T07:15:06.515Z,123.75
2019-06-25T07:16:06.394Z,129.38
2019-06-25T07:17:06.315Z,123.75
2019-06-25T07:18:06.239Z,123.75
2019-06-25T07:19:06.165Z,123.75
2019-06-25T07:20:06.093Z,123.75
2019-06-25T07:21:06.018Z,129.38
2019-06-25T07:22:17.109Z,129.38
2019-06-25T07:24:10.278Z,129.38
2019-06-25T07:25:10.186Z,129.38
2019-06-25T07:27:16.979Z,129.38
2019-06-25T07:28:14.432Z,129.38
2019-06-25T07:30:18.757Z,135.00
2019-06-25T07:31:18.670Z,135.00
2019-06-25T07:33:11.924Z,135.00
2019-06-25T07:34:11.838Z,140.63
2019-06-25T07:36:16.156Z,140.63
2019-06-25T07:37:16.072Z,140.63
2019-06-25T07:38:16.003Z,140.63
2019-06-25T07:39:15.925Z,140.63
2019-06-25T07:40:15.854Z,140.63
2019-06-25T07:41:15.782Z,140.63
2019-06-25T07:42:15.705Z,140.63
2019-06-25T07:43:15.635Z,140.63
2019-06-25T07:44:15.561Z,140.63
2019-06-25T07:45:15.499Z,146.25
2019-06-25T07:46:15.421Z,146.25
2019-06-25T07:47:15.356Z,151.88
2019-06-25T07:48:15.279Z,151.88
2019-06-25T07:49:15.205Z,151.88
2019-06-25T07:50:15.129Z,157.50
2019-06-25T07:51:15.062Z,157.50
2019-06-25T07:52:14.991Z,163.13
2019-06-25T07:53:14.947Z,163.13
2019-06-25T07:54:14.854Z,163.13
2019-06-25T07:55:14.778Z,168.75
2019-06-25T07:56:14.703Z,168.75
2019-06-25T07:57:14.638Z,168.75
2019-06-25T07:58:14.564Z,168.75
2019-06-25T07:59:14.486Z,168.75
2019-06-25T08:00:14.416Z,163.13
2019-06-25T08:01:14.339Z,163.13
2019-06-25T08:02:14.296Z,163.13
2019-06-25T08:03:14.199Z,163.13
2019-06-25T08:04:24.893Z,163.13
2019-06-25T08:05:14.055Z,163.13
2019-06-25T08:06:13.989Z,163.13
2019-06-25T08:07:13.913Z,157.50
2019-06-25T08:08:13.837Z,163.13
2019-06-25T08:09:13.774Z,157.50
2019-06-25T08:10:13.695Z,157.50
2019-06-25T08:11:13.627Z,157.50
2019-06-25T08:12:13.559Z,157.50
2019-06-25T08:13:13.486Z,157.50
2019-06-25T08:14:13.421Z,157.50
2019-06-25T08:15:13.338Z,151.88
2019-06-25T08:16:13.269Z,151.88
2019-06-25T08:17:13.200Z,151.88
2019-06-25T08:18:13.141Z,151.88
2019-06-25T08:19:13.054Z,151.88
2019-06-25T08:20:12.979Z,151.88
2019-06-25T08:21:12.905Z,151.88
2019-06-25T08:22:12.843Z,151.88
2019-06-25T08:23:12.774Z,151.88
2019-06-25T08:24:12.698Z,151.88
2019-06-25T08:25:12.625Z,151.88
2019-06-25T08:26:12.582Z,151.88
2019-06-25T08:27:12.497Z,151.88
2019-06-25T08:28:12.409Z,151.88
2019-06-25T08:29:12.336Z,151.88
2019-06-25T08:30:12.287Z,151.88
2019-06-25T08:31:12.193Z,151.88
2019-06-25T08:32:12.128Z,151.88
2019-06-25T08:33:12.049Z,157.50
2019-06-25T08:34:11.992Z,157.50
2019-06-25T08:35:11.923Z,157.50
2019-06-25T08:36:11.839Z,157.50
2019-06-25T08:37:11.804Z,157.50
2019-06-25T08:38:14.737Z,157.50
2019-06-25T08:39:11.622Z,168.75
2019-06-25T08:40:19.759Z,163.13
2019-06-25T08:41:11.490Z,163.13
2019-06-25T08:42:11.405Z,163.13
2019-06-25T08:43:11.341Z,168.75
2019-06-25T08:44:11.262Z,168.75
2019-06-25T08:45:11.196Z,168.75
2019-06-25T08:46:11.121Z,168.75
2019-06-25T08:47:11.051Z,168.75
2019-06-25T08:48:10.978Z,168.75
2019-06-25T08:49:10.907Z,168.75
2019-06-25T08:50:10.841Z,174.38
2019-06-25T08:51:10.761Z,174.38
2019-06-25T08:52:10.693Z,180.00
2019-06-25T08:53:10.623Z,180.00
2019-06-25T08:54:10.549Z,180.00
2019-06-25T08:55:10.479Z,180.00
2019-06-25T08:56:10.409Z,185.63
2019-06-25T08:57:10.334Z,185.63
2019-06-25T08:58:10.266Z,185.63
2019-06-25T08:59:10.193Z,191.25
2019-06-25T09:00:10.128Z,191.25
2019-06-25T09:01:10.053Z,191.25
2019-06-25T09:02:09.980Z,191.25
2019-06-25T09:03:09.920Z,196.88
2019-06-25T09:04:09.838Z,196.88
2019-06-25T09:05:09.767Z,196.88
2019-06-25T09:06:09.686Z,196.88
2019-06-25T09:07:09.627Z,196.88
2019-06-25T09:08:09.553Z,196.88
2019-06-25T09:09:09.483Z,196.88
2019-06-25T09:10:09.411Z,202.50
2019-06-25T09:11:09.340Z,202.50
2019-06-25T09:12:09.268Z,202.50
2019-06-25T09:13:09.203Z,208.13
2019-06-25T09:14:09.141Z,213.75
2019-06-25T09:15:09.061Z,213.75
2019-06-25T09:16:08.986Z,213.75
2019-06-25T09:17:08.913Z,213.75
2019-06-25T09:18:08.852Z,219.38
2019-06-25T09:19:08.789Z,225.00
2019-06-25T09:20:08.699Z,225.00
2019-06-25T09:21:08.631Z,219.38
2019-06-25T09:22:08.553Z,225.00
2019-06-25T09:23:08.487Z,225.00
2019-06-25T09:24:08.416Z,225.00
2019-06-25T09:25:08.357Z,225.00
2019-06-25T09:26:08.273Z,230.63
2019-06-25T09:27:08.203Z,230.63
2019-06-25T09:28:08.141Z,230.63
2019-06-25T09:29:08.060Z,230.63
2019-06-25T09:30:07.992Z,230.63
2019-06-25T09:31:07.933Z,230.63
2019-06-25T09:32:07.847Z,230.63
2019-06-25T09:33:07.780Z,230.63
2019-06-25T09:34:07.710Z,225.00
2019-06-25T09:35:15.040Z,230.63
2019-06-25T09:36:07.569Z,225.00
2019-06-25T09:37:07.547Z,225.00
2019-06-25T09:38:07.424Z,219.38
2019-06-25T09:39:07.357Z,225.00
2019-06-25T09:40:07.281Z,225.00
2019-06-25T09:41:07.247Z,225.00
2019-06-25T09:42:07.142Z,225.00
2019-06-25T09:43:07.087Z,225.00
2019-06-25T09:44:07.001Z,225.00
2019-06-25T09:45:06.944Z,230.63
2019-06-25T09:46:06.854Z,230.63
2019-06-25T09:47:06.788Z,230.63
2019-06-25T09:48:06.715Z,230.63
2019-06-25T09:49:06.657Z,225.00
2019-06-25T09:50:06.586Z,230.63
2019-06-25T09:51:06.506Z,230.63
2019-06-25T09:52:06.434Z,230.63
2019-06-25T09:53:06.375Z,230.63
2019-06-25T09:54:06.298Z,230.63
2019-06-25T09:55:06.225Z,230.63
2019-06-25T09:56:06.155Z,225.00
2019-06-25T09:57:06.083Z,225.00
2019-06-25T09:58:06.017Z,225.00
2019-06-25T09:59:05.986Z,225.00
2019-06-25T10:00:05.870Z,225.00
2019-06-25T10:01:05.799Z,225.00
2019-06-25T10:02:05.731Z,225.00
2019-06-25T10:03:05.665Z,225.00
2019-06-25T10:04:05.588Z,225.00
2019-06-25T10:05:05.526Z,225.00
2019-06-25T10:06:05.447Z,225.00
2019-06-25T10:07:05.379Z,225.00
2019-06-25T10:08:05.307Z,225.00
2019-06-25T10:09:05.237Z,219.38
2019-06-25T10:10:05.165Z,225.00
2019-06-25T10:11:05.100Z,230.63
2019-06-25T10:12:05.045Z,230.63
2019-06-25T10:13:04.954Z,236.25
2019-06-25T10:14:04.883Z,241.88
2019-06-25T10:15:04.813Z,236.25
2019-06-25T10:16:04.742Z,236.25
2019-06-25T10:17:04.674Z,241.88
2019-06-25T10:18:04.606Z,247.50
2019-06-25T10:19:05.152Z,247.50
2019-06-25T10:20:04.463Z,247.50
2019-06-25T10:21:04.396Z,258.75
2019-06-25T10:22:04.321Z,264.38
2019-06-25T10:23:04.253Z,270.00
2019-06-25T10:24:04.179Z,270.00
2019-06-25T10:25:04.115Z,275.63
2019-06-25T10:26:04.073Z,275.63
2019-06-25T10:27:03.966Z,281.25
2019-06-25T10:28:03.900Z,286.88
2019-06-25T10:29:03.841Z,286.88
2019-06-25T10:30:03.767Z,281.25
2019-06-25T10:31:03.708Z,281.25
2019-06-25T10:32:03.619Z,281.25
2019-06-25T10:33:03.548Z,292.50
2019-06-25T10:34:03.480Z,303.75
2019-06-25T10:35:03.408Z,309.38
2019-06-25T10:36:03.342Z,320.63
2019-06-25T10:37:03.269Z,320.63
2019-06-25T10:38:03.199Z,320.63
2019-06-25T10:39:03.129Z,320.63
2019-06-25T10:40:03.255Z,320.63
2019-06-25T10:41:02.991Z,326.25
2019-06-25T10:42:02.921Z,326.25
2019-06-25T10:43:02.853Z,326.25
2019-06-25T10:44:02.790Z,331.88
2019-06-25T10:45:02.857Z,331.88
2019-06-25T10:46:02.641Z,343.13
2019-06-25T10:47:02.570Z,348.75
2019-06-25T10:48:02.534Z,354.38
2019-06-25T10:49:02.431Z,348.75
2019-06-25T10:50:02.374Z,348.75
2019-06-25T10:51:02.340Z,348.75
2019-06-25T10:52:02.228Z,337.50
2019-06-25T10:53:02.150Z,326.25
2019-06-25T10:54:02.085Z,337.50
2019-06-25T10:55:02.052Z,348.75
2019-06-25T10:56:01.945Z,360.00
2019-06-25T10:57:01.877Z,360.00
2019-06-25T10:58:01.809Z,365.63
2019-06-25T10:59:01.788Z,354.38
2019-06-25T11:00:02.034Z,376.88
2019-06-25T11:01:01.597Z,399.38
2019-06-25T11:02:01.529Z,405.00
2019-06-25T11:03:01.454Z,410.63
2019-06-25T11:04:01.389Z,416.25
2019-06-25T11:05:01.322Z,416.25
2019-06-25T11:06:05.586Z,421.88
2019-06-25T11:07:07.075Z,421.88
2019-06-25T11:08:01.113Z,421.88
2019-06-25T11:09:01.049Z,416.25
2019-06-25T11:10:00.974Z,410.63
2019-06-25T11:11:00.910Z,405.00
2019-06-25T11:12:00.837Z,399.38
2019-06-25T11:13:03.396Z,399.38
2019-06-25T11:14:08.106Z,382.50
2019-06-25T11:15:00.626Z,388.13
2019-06-25T11:16:00.839Z,410.63
2019-06-25T11:17:00.498Z,416.25
2019-06-25T11:18:00.417Z,416.25
2019-06-25T11:19:00.348Z,427.50
2019-06-25T11:20:00.282Z,427.50
2019-06-25T11:21:00.210Z,433.13
2019-06-25T11:22:00.146Z,433.13
2019-06-25T11:23:00.077Z,433.13
2019-06-25T11:24:00.006Z,427.50
2019-06-25T11:24:59.939Z,399.38
2019-06-25T11:26:20.350Z,410.63
2019-06-25T11:26:59.807Z,410.63
2019-06-25T11:27:59.762Z,427.50
2019-06-25T11:28:59.662Z,433.13
2019-06-25T11:29:59.591Z,438.75
2019-06-25T11:30:59.522Z,455.63
2019-06-25T11:31:59.456Z,461.25
2019-06-25T11:32:59.387Z,472.50
2019-06-25T11:33:59.313Z,495.00
2019-06-25T11:34:59.294Z,500.63
2019-06-25T11:35:59.180Z,506.25
2019-06-25T11:36:59.113Z,528.75
2019-06-25T11:37:59.349Z,540.00
2019-06-25T11:38:58.983Z,545.63
2019-06-25T11:39:58.910Z,551.25
2019-06-25T11:40:58.836Z,556.88
2019-06-25T11:41:58.768Z,540.00
2019-06-25T11:42:58.702Z,523.13
2019-06-25T11:43:58.631Z,551.25
2019-06-25T11:44:58.588Z,585.00
2019-06-25T11:45:58.494Z,596.25
2019-06-25T11:46:58.495Z,601.88
2019-06-25T11:47:58.357Z,613.13
2019-06-25T11:48:58.390Z,624.38
2019-06-25T11:49:58.226Z,630.00
2019-06-25T11:50:58.158Z,635.63
2019-06-25T11:51:58.089Z,630.00
2019-06-25T11:52:58.021Z,630.00
2019-06-25T11:53:57.955Z,630.00
2019-06-25T11:54:57.887Z,641.25
2019-06-25T11:55:57.827Z,641.25
2019-06-25T11:56:57.750Z,663.75
2019-06-25T11:57:57.682Z,669.38
2019-06-25T11:58:57.616Z,675.00
2019-06-25T11:59:57.543Z,686.25
2019-06-25T12:00:57.480Z,697.50
2019-06-25T12:01:57.409Z,691.88
2019-06-25T12:02:57.361Z,658.13
2019-06-25T12:03:57.272Z,646.88
2019-06-25T12:04:57.209Z,686.25
2019-06-25T12:05:57.141Z,731.25
2019-06-25T12:06:57.078Z,748.13
2019-06-25T12:07:57.006Z,770.63
2019-06-25T12:08:56.939Z,793.13
2019-06-25T12:09:56.890Z,804.38
2019-06-25T12:10:56.811Z,798.75
2019-06-25T12:11:56.735Z,804.38
2019-06-25T12:12:56.667Z,810.00
2019-06-25T12:13:56.600Z,826.88
2019-06-25T12:14:56.531Z,871.88
2019-06-25T12:15:56.467Z,945.00
2019-06-25T12:16:56.402Z,1051.88
2019-06-25T12:17:56.330Z,1771.88
2019-06-25T12:18:56.265Z,3605.63
2019-06-25T12:19:56.202Z,5028.75
2019-06-25T12:20:56.129Z,5591.25
2019-06-25T12:21:56.069Z,6052.50
2019-06-25T12:22:56.009Z,6035.63
2019-06-25T12:23:55.936Z,6131.25
2019-06-25T12:24:55.874Z,6148.13
2019-06-25T12:25:55.808Z,5760.00
2019-06-25T12:26:56.869Z,5591.25
2019-06-25T12:27:55.680Z,5461.88
2019-06-25T12:28:55.645Z,5096.25
2019-06-25T12:29:55.582Z,4781.25
2019-06-25T12:30:55.493Z,5130.00
2019-06-25T12:31:55.428Z,5040.00
2019-06-25T12:32:55.385Z,3768.75
2019-06-25T12:33:55.312Z,5428.13
2019-06-25T12:34:55.257Z,5703.75
2019-06-25T12:35:55.197Z,5754.38
2019-06-25T12:37:08.470Z,6142.50
2019-06-25T12:37:55.075Z,6671.25
2019-06-25T12:38:55.018Z,7081.88
2019-06-25T12:39:54.962Z,6789.38
2019-06-25T12:40:54.903Z,6373.13
2019-06-25T12:41:54.848Z,6401.25
2019-06-25T12:42:54.821Z,6513.75
2019-06-25T12:43:54.732Z,6361.88
2019-06-25T12:44:54.681Z,5810.63
2019-06-25T12:45:54.620Z,5293.13
2019-06-25T12:47:02.473Z,5113.13
2019-06-25T12:47:54.511Z,4983.75
2019-06-25T12:48:54.456Z,5231.25
2019-06-25T12:49:54.395Z,6013.13
2019-06-25T12:50:54.342Z,6671.25
2019-06-25T12:51:54.307Z,6451.88
2019-06-25T12:52:54.244Z,6440.63
2019-06-25T12:53:54.181Z,6733.13
2019-06-25T12:54:54.129Z,6969.38
2019-06-25T12:55:54.076Z,7160.63
2019-06-25T12:56:54.028Z,7211.25
2019-06-25T12:57:53.973Z,6648.75
2019-06-25T12:58:53.921Z,6097.50
2019-06-25T12:59:53.866Z,6086.25
2019-06-25T13:00:53.810Z,6350.63